This is the latest recevied weather packets stored in our database for station/object N0THY. If no packets are shown the sender has not sent any weather packets the latest 10 day(s).
| Time | Temp. | Humidity | Pressure | Rain* | Wind** | Luminosity | Snow |
|---|---|---|---|---|---|---|---|
| 1777129060 | 12.78° C | 32% | 1010 hPa | 0 mm | - | - | - |
| 1777128157 | 11.67° C | 34% | 1010.1 hPa | 0 mm | - | - | - |
| 1777127254 | 11.67° C | 34% | 1010.2 hPa | 0 mm | - | - | - |
| 1777126351 | 10.56° C | 36% | 1010.1 hPa | 0 mm | - | - | - |
| 1777125448 | 9.44° C | 40% | 1010 hPa | 0 mm | - | - | - |
| 1777124545 | 7.22° C | 46% | 1010 hPa | 0 mm | - | - | - |
| 1777123643 | 7.22° C | 44% | 1009.7 hPa | 0 mm | - | - | - |
| 1777122740 | 7.22° C | 42% | 1009.7 hPa | 0 mm | - | - | - |
| 1777121837 | 7.22° C | 42% | 1009.5 hPa | 0 mm | - | - | - |
| 1777120934 | 7.78° C | 40% | 1009.5 hPa | 0 mm | - | - | - |
| 1777120031 | 8.33° C | 39% | 1009.3 hPa | 0 mm | - | - | - |
| 1777119128 | 7.78° C | 39% | 1009.2 hPa | 0 mm | - | - | - |
| 1777117322 | 8.33° C | 38% | 1009.1 hPa | 0 mm | - | - | - |
| 1777116419 | 8.89° C | 35% | 1008.9 hPa | 0 mm | - | - | - |
| 1777115516 | 9.44° C | 33% | 1008.9 hPa | 0 mm | - | - | - |
| 1777114613 | 8.33° C | 36% | 1008.5 hPa | 0 mm | - | - | - |
| 1777113756 | 9.44° C | 35% | 1008.7 hPa | 0 mm | - | - | - |
| 1777113710 | 9.44° C | 35% | 1008.7 hPa | 0 mm | - | - | - |
| 1777112807 | 10° C | 33% | 1008.6 hPa | 0 mm | - | - | - |
| 1777111904 | 10° C | 32% | 1008.6 hPa | 0 mm | - | - | - |
| 1777111001 | 9.44° C | 33% | 1008.5 hPa | 0 mm | - | - | - |
| 1777109195 | 7.78° C | 37% | 1008.1 hPa | 0 mm | - | - | - |
| 1777108292 | 7.78° C | 38% | 1008.1 hPa | 0 mm | - | - | - |
| 1777107389 | 7.78° C | 39% | 1007.8 hPa | 0 mm | - | - | - |
| 1777106487 | 7.22° C | 40% | 1007.8 hPa | 0 mm | - | - | - |
* Rain since midnight (hover to see other rain measurements)
** Current wind speed in m/s (hover to see current wind gust speed)